createdAt,value
2022-08-03T07:31:17.130Z,52.445999
2022-08-03T07:32:25.772Z,52.477001
2022-08-03T07:33:35.420Z,52.515999
2022-08-03T07:34:45.058Z,52.546001
2022-08-03T07:35:54.078Z,52.515999
2022-08-03T07:37:03.938Z,52.465
2022-08-03T07:38:11.665Z,52.409
2022-08-03T07:39:22.304Z,52.451
2022-08-03T07:40:32.396Z,52.438
2022-08-03T07:41:41.850Z,52.41
2022-08-03T07:42:52.236Z,52.382
2022-08-03T07:43:59.491Z,52.338001
2022-08-03T07:45:08.146Z,52.367001
2022-08-03T07:46:17.725Z,52.348999
2022-08-03T07:47:26.329Z,52.313
2022-08-03T07:48:35.912Z,52.306999
2022-08-03T07:49:45.585Z,52.308998
2022-08-03T07:50:54.163Z,52.294998
2022-08-03T07:52:03.839Z,52.297001
2022-08-03T07:53:13.431Z,52.271
2022-08-03T07:54:21.134Z,52.261002
2022-08-03T07:55:28.756Z,52.224998
2022-08-03T07:56:38.349Z,52.176998
2022-08-03T07:57:54.579Z,52.143002
2022-08-03T07:59:03.183Z,52.125
2022-08-03T08:00:12.847Z,52.112999
2022-08-03T08:01:21.530Z,52.087002
2022-08-03T08:02:29.115Z,52.112
2022-08-03T08:03:41.007Z,52.124001
2022-08-03T08:04:49.309Z,52.098
2022-08-03T08:05:57.981Z,52.053001
2022-08-03T08:07:06.576Z,52.027
2022-08-03T08:08:15.212Z,51.976002
2022-08-03T08:09:56.474Z,51.952
2022-08-03T08:11:05.995Z,51.918999
2022-08-03T08:12:16.140Z,51.910999
2022-08-03T08:13:25.362Z,51.887001
2022-08-03T08:14:32.974Z,51.873001
2022-08-03T08:15:43.679Z,51.854
2022-08-03T08:16:52.588Z,51.833
2022-08-03T08:18:01.150Z,51.837002
2022-08-03T08:19:13.718Z,51.839001
2022-08-03T08:20:25.263Z,51.827
2022-08-03T08:21:53.377Z,51.819
2022-08-03T08:22:44.137Z,51.825001
2022-08-03T08:23:56.251Z,51.813999
2022-08-03T08:25:02.314Z,51.794998
2022-08-03T08:26:12.494Z,51.794998
2022-08-03T08:27:22.199Z,51.804001
2022-08-03T08:28:33.619Z,51.766998
2022-08-03T08:29:46.903Z,51.755001
2022-08-03T08:30:52.468Z,51.731998
2022-08-03T08:32:02.079Z,51.726002
2022-08-03T08:33:22.871Z,51.714001
2022-08-03T08:34:20.704Z,51.737
2022-08-03T08:35:30.323Z,51.717999
2022-08-03T08:36:39.948Z,51.695
2022-08-03T08:37:50.866Z,51.719002
2022-08-03T08:38:59.166Z,51.681999
2022-08-03T08:40:08.470Z,51.675999
2022-08-03T08:41:18.052Z,51.666
2022-08-03T08:42:26.839Z,51.673
2022-08-03T08:43:34.435Z,51.666
2022-08-03T08:44:44.583Z,51.665001
2022-08-03T08:45:54.264Z,51.643002
2022-08-03T08:47:02.843Z,51.643002
2022-08-03T08:48:11.423Z,51.618
2022-08-03T08:49:20.411Z,51.612
2022-08-03T08:50:32.839Z,51.625
2022-08-03T08:51:50.635Z,51.596001
2022-08-03T08:52:51.379Z,51.609001
2022-08-03T08:54:00.972Z,51.59
2022-08-03T08:55:10.611Z,51.597
2022-08-03T08:56:19.302Z,51.591
2022-08-03T08:57:42.172Z,51.577999
2022-08-03T08:58:38.743Z,51.584
2022-08-03T08:59:49.652Z,51.571999
2022-08-03T09:00:58.902Z,51.577999
2022-08-03T09:02:06.497Z,51.576
2022-08-03T09:03:22.431Z,51.563999
2022-08-03T09:04:26.724Z,51.576
2022-08-03T09:05:55.280Z,51.57
2022-08-03T09:06:58.797Z,51.587002
2022-08-03T09:07:57.411Z,51.578999
2022-08-03T09:09:07.041Z,51.587002
2022-08-03T09:10:16.636Z,51.566002
2022-08-03T09:11:52.578Z,51.540001
2022-08-03T09:12:41.339Z,51.514
2022-08-03T09:13:46.550Z,51.483002
2022-08-03T09:15:15.088Z,51.501999
2022-08-03T09:16:06.938Z,51.509998
2022-08-03T09:17:17.158Z,51.516998
2022-08-03T09:18:26.105Z,51.504002
2022-08-03T09:19:36.816Z,51.495998
2022-08-03T09:20:45.374Z,51.516998
2022-08-03T09:21:54.968Z,51.504002
2022-08-03T09:23:13.153Z,51.484001
2022-08-03T09:24:25.880Z,51.464001
2022-08-03T09:25:25.026Z,51.431999
2022-08-03T09:26:32.410Z,51.401001
2022-08-03T09:27:42.044Z,51.382999
2022-08-03T09:29:00.310Z,51.375
2022-08-03T09:29:58.178Z,51.361
2022-08-03T09:31:07.776Z,51.334999
2022-08-03T09:32:15.377Z,51.328999
2022-08-03T09:33:25.023Z,51.319
2022-08-03T09:34:35.805Z,51.319
2022-08-03T09:35:53.448Z,51.293999
2022-08-03T09:36:55.863Z,51.287998
2022-08-03T09:38:08.639Z,51.282001
2022-08-03T09:39:15.109Z,51.279999
2022-08-03T09:40:23.677Z,51.273998
2022-08-03T09:41:32.267Z,51.252998
2022-08-03T09:42:41.933Z,51.248001
2022-08-03T09:43:51.543Z,51.235001
2022-08-03T09:44:59.171Z,51.256001
2022-08-03T09:46:07.831Z,51.248001
2022-08-03T09:47:17.866Z,51.217999
2022-08-03T09:48:25.170Z,51.210999
2022-08-03T09:49:34.810Z,51.206001
2022-08-03T09:50:56.959Z,51.193001
2022-08-03T09:52:30.185Z,51.193001
2022-08-03T09:53:04.466Z,51.206001
2022-08-03T09:54:17.699Z,51.181
2022-08-03T09:55:23.731Z,51.192001
2022-08-03T09:56:35.314Z,51.183998
2022-08-03T09:57:42.042Z,51.171001
2022-08-03T09:58:50.621Z,51.171001
2022-08-03T10:00:03.242Z,51.165001
2022-08-03T10:01:07.952Z,51.176998
2022-08-03T10:02:18.486Z,51.165001
2022-08-03T10:03:27.079Z,51.164001
2022-08-03T10:04:34.688Z,51.168999
2022-08-03T10:05:44.333Z,51.132999
2022-08-03T10:06:54.450Z,51.168999
2022-08-03T10:08:03.245Z,51.139
2022-08-03T10:09:10.952Z,51.139
2022-08-03T10:10:28.751Z,51.126999
2022-08-03T10:11:31.317Z,51.105
2022-08-03T10:12:41.992Z,51.105
2022-08-03T10:13:49.703Z,51.092999
2022-08-03T10:15:00.340Z,51.087002
2022-08-03T10:16:21.010Z,51.074001
2022-08-03T10:17:19.723Z,51.054001
2022-08-03T10:18:28.320Z,51.054001
2022-08-03T10:19:37.341Z,51.044998
2022-08-03T10:20:47.211Z,51.050999
2022-08-03T10:21:54.799Z,51.069
2022-08-03T10:23:02.398Z,51.063
2022-08-03T10:24:12.072Z,51.069
2022-08-03T10:25:21.707Z,51.044998
2022-08-03T10:26:31.278Z,51.030998
2022-08-03T10:27:39.916Z,51.036999
2022-08-03T10:28:48.521Z,51.006001
2022-08-03T10:29:58.354Z,51.023998
2022-08-03T10:31:05.970Z,51.023998
2022-08-03T10:32:14.563Z,51.153999
2022-08-03T10:33:49.390Z,51.229
2022-08-03T10:34:34.903Z,51.298
2022-08-03T10:35:44.485Z,51.328999
2022-08-03T10:36:53.080Z,51.471001
2022-08-03T10:38:01.775Z,51.681999
2022-08-03T10:39:16.156Z,51.729
2022-08-03T10:40:33.356Z,51.759998
2022-08-03T10:41:29.648Z,51.854
2022-08-03T10:42:39.242Z,51.872002
2022-08-03T10:43:49.201Z,52.016998
2022-08-03T10:44:56.740Z,51.681
2022-08-03T10:46:05.322Z,51.587002
2022-08-03T10:47:13.979Z,51.605
2022-08-03T10:48:23.568Z,51.537998
2022-08-03T10:49:34.188Z,51.499001
2022-08-03T10:50:38.772Z,51.339001
2022-08-03T10:51:48.358Z,51.25
2022-08-03T10:52:57.946Z,51.161999
2022-08-03T10:54:11.833Z,51.105999
2022-08-03T10:55:17.133Z,51.011002
2022-08-03T10:56:27.438Z,50.999001
2022-08-03T10:57:37.327Z,50.93
2022-08-03T10:58:53.602Z,50.948002
2022-08-03T10:59:53.523Z,51.044998
2022-08-03T11:01:03.169Z,50.999001
2022-08-03T11:02:12.353Z,50.945999
2022-08-03T11:03:21.446Z,50.924
2022-08-03T11:04:31.058Z,50.862999
2022-08-03T11:05:39.620Z,50.838001
2022-08-03T11:06:49.216Z,50.793999
2022-08-03T11:07:56.786Z,50.707001
2022-08-03T11:09:06.403Z,50.627998
2022-08-03T11:10:15.999Z,50.622002
2022-08-03T11:11:24.592Z,50.584
2022-08-03T11:12:33.163Z,50.564999
2022-08-03T11:13:41.761Z,50.424
2022-08-03T11:14:50.347Z,50.341
2022-08-03T11:16:01.630Z,50.470001
2022-08-03T11:17:14.107Z,50.186001
2022-08-03T11:18:18.054Z,50.087002
2022-08-03T11:19:28.627Z,50.216
2022-08-03T11:20:39.235Z,50.173
2022-08-03T11:21:48.836Z,49.964001
2022-08-03T11:22:57.432Z,49.987999
2022-08-03T11:24:07.164Z,50.043999
2022-08-03T11:25:34.764Z,49.479
2022-08-03T11:26:34.125Z,49.257999
2022-08-03T11:27:41.733Z,49.542999
2022-08-03T11:28:51.337Z,49.316002
2022-08-03T11:29:59.908Z,49.298
2022-08-03T11:31:08.525Z,49.321999
2022-08-03T11:32:19.613Z,49.033001
2022-08-03T11:33:27.696Z,48.747002
2022-08-03T11:34:37.313Z,48.862999
2022-08-03T11:35:45.903Z,48.539001
2022-08-03T11:36:54.669Z,48.393002
2022-08-03T11:38:05.141Z,48.196999
2022-08-03T11:39:16.936Z,48.16
2022-08-03T11:40:22.464Z,47.966
2022-08-03T11:41:32.053Z,48.082001
2022-08-03T11:42:42.625Z,48.721001
2022-08-03T11:43:50.275Z,48.887001
2022-08-03T11:44:59.862Z,49.016998
2022-08-03T11:46:08.445Z,48.945
2022-08-03T11:47:18.506Z,49.091
2022-08-03T11:48:26.797Z,49.016998
2022-08-03T11:49:35.945Z,49.084999
2022-08-03T11:50:45.407Z,49.115002
2022-08-03T11:51:53.999Z,49.146999
2022-08-03T11:53:02.619Z,49.188999
2022-08-03T11:54:12.226Z,49.097
2022-08-03T11:55:22.249Z,49.171001
2022-08-03T11:56:31.375Z,49.073002
2022-08-03T11:58:59.433Z,49.030998
2022-08-03T11:59:00.552Z,49.176998
2022-08-03T12:00:02.176Z,48.999001
2022-08-03T12:01:10.219Z,48.932999
2022-08-03T12:02:17.829Z,48.68
2022-08-03T12:03:26.511Z,48.931999
2022-08-03T12:04:36.522Z,48.869999
2022-08-03T12:05:48.011Z,48.771999
2022-08-03T12:06:56.737Z,49.016998
2022-08-03T12:08:06.800Z,48.999001
2022-08-03T12:09:15.908Z,48.796001
2022-08-03T12:10:25.507Z,49.084999
2022-08-03T12:11:34.104Z,48.919998
2022-08-03T12:12:46.640Z,48.858002
2022-08-03T12:13:57.038Z,48.723999
2022-08-03T12:15:03.600Z,48.821999
2022-08-03T12:16:12.190Z,48.816002
2022-08-03T12:17:21.100Z,48.784
2022-08-03T12:18:30.388Z,48.778
2022-08-03T12:19:39.058Z,49.153
2022-08-03T12:20:46.693Z,49.078999
2022-08-03T12:21:57.052Z,49.219002
2022-08-03T12:23:04.877Z,49.207001
2022-08-03T12:24:13.536Z,48.98
2022-08-03T12:25:26.983Z,48.717999
2022-08-03T12:26:32.782Z,48.667999
2022-08-03T12:27:42.545Z,48.619999
2022-08-03T12:28:51.290Z,48.521999
2022-08-03T12:30:01.221Z,49.016998
2022-08-03T12:31:10.903Z,48.911999
2022-08-03T12:32:19.475Z,48.900002
2022-08-03T12:33:28.081Z,49.120998
2022-08-03T12:34:36.692Z,49.067001
2022-08-03T12:35:52.065Z,48.692001
2022-08-03T12:36:57.841Z,48.778
2022-08-03T12:38:08.652Z,48.816002
2022-08-03T12:39:16.254Z,48.778
2022-08-03T12:40:28.048Z,48.986
2022-08-03T12:41:35.605Z,49.071999
2022-08-03T12:42:44.168Z,48.827999
2022-08-03T12:43:52.760Z,48.869999
2022-08-03T12:45:02.445Z,49.049
2022-08-03T12:46:12.035Z,48.962002
2022-08-03T12:47:20.855Z,48.771999
2022-08-03T12:48:30.214Z,48.765999
2022-08-03T12:49:39.895Z,48.551998
2022-08-03T12:50:48.471Z,48.576
2022-08-03T12:51:58.035Z,48.638
2022-08-03T12:53:07.831Z,48.655998
2022-08-03T12:54:16.244Z,48.534
2022-08-03T12:55:26.830Z,48.625999
2022-08-03T12:56:35.381Z,48.504002
2022-08-03T12:57:43.042Z,48.576
2022-08-03T12:58:52.763Z,48.613998
2022-08-03T13:00:01.372Z,48.576
2022-08-03T13:01:13.730Z,48.57
2022-08-03T13:02:21.603Z,48.546001
2022-08-03T13:03:38.789Z,48.498001
2022-08-03T13:04:40.765Z,48.540001
2022-08-03T13:05:48.335Z,48.650002
2022-08-03T13:07:02.812Z,48.584
2022-08-03T13:08:07.562Z,48.557999
2022-08-03T13:09:16.150Z,48.619999
2022-08-03T13:10:24.728Z,48.584
2022-08-03T13:11:56.001Z,48.563999
2022-08-03T13:12:42.860Z,48.516998
2022-08-03T13:13:52.460Z,48.521999
2022-08-03T13:15:02.069Z,48.455002
2022-08-03T13:16:14.614Z,48.308998
2022-08-03T13:17:22.508Z,48.308998
2022-08-03T13:18:30.973Z,48.339001
2022-08-03T13:19:40.549Z,48.401001
2022-08-03T13:20:49.161Z,48.48
2022-08-03T13:22:03.287Z,48.499001
2022-08-03T13:23:10.067Z,48.521999
2022-08-03T13:24:20.288Z,48.462002
2022-08-03T13:25:28.444Z,48.499001
2022-08-03T13:26:38.162Z,48.395
2022-08-03T13:28:02.927Z,48.467999
2022-08-03T13:28:56.304Z,48.645
2022-08-03T13:30:04.898Z,48.521999
2022-08-03T13:31:13.507Z,48.528999
2022-08-03T13:32:23.113Z,48.455002
2022-08-03T13:33:31.702Z,48.473999
2022-08-03T13:34:41.551Z,48.48
2022-08-03T13:35:51.148Z,48.455002
2022-08-03T13:37:08.772Z,48.584
2022-08-03T13:38:09.370Z,48.431
2022-08-03T13:39:20.077Z,48.449001
2022-08-03T13:40:30.212Z,48.516998
2022-08-03T13:41:40.138Z,48.650002
2022-08-03T13:42:49.727Z,48.521999
2022-08-03T13:44:25.327Z,48.556999
2022-08-03T13:45:07.889Z,48.575001
2022-08-03T13:46:16.467Z,48.514999
2022-08-03T13:47:25.047Z,48.429001
2022-08-03T13:48:34.685Z,48.831001
2022-08-03T13:49:54.417Z,48.923
2022-08-03T13:50:53.802Z,48.845001
2022-08-03T13:52:04.557Z,48.868999
2022-08-03T13:53:13.164Z,48.881001
2022-08-03T13:54:22.778Z,48.904999
2022-08-03T13:55:31.448Z,48.792999
2022-08-03T13:56:40.084Z,48.730999
2022-08-03T13:58:01.763Z,48.522999
2022-08-03T13:59:00.732Z,48.522999
2022-08-03T14:00:09.313Z,48.528999
2022-08-03T14:01:29.794Z,48.474998
2022-08-03T14:02:30.501Z,48.505001
2022-08-03T14:03:39.076Z,48.541
2022-08-03T14:04:48.672Z,48.418999
2022-08-03T14:05:57.304Z,48.511002
2022-08-03T14:07:06.946Z,48.511002
2022-08-03T14:08:15.629Z,48.505001
2022-08-03T14:09:23.216Z,48.438999
2022-08-03T14:10:32.841Z,48.463001
2022-08-03T14:12:03.881Z,48.474998
2022-08-03T14:12:50.948Z,48.499001
2022-08-03T14:13:59.616Z,48.457001
2022-08-03T14:15:09.202Z,48.445
2022-08-03T14:16:18.797Z,48.412998
2022-08-03T14:17:27.386Z,48.471001
2022-08-03T14:18:37.112Z,48.527
2022-08-03T14:19:52.905Z,48.459
2022-08-03T14:20:57.369Z,48.509998
2022-08-03T14:22:07.025Z,48.394001
2022-08-03T14:23:16.383Z,48.441002
2022-08-03T14:24:25.974Z,48.483002
2022-08-03T14:25:43.323Z,48.459
2022-08-03T14:26:46.119Z,48.429001
2022-08-03T14:27:53.692Z,48.471001
2022-08-03T14:29:03.302Z,48.527
2022-08-03T14:30:11.935Z,48.452999
2022-08-03T14:32:10.619Z,48.5
2022-08-03T14:32:31.086Z,48.506001
2022-08-03T14:33:40.909Z,48.493999
2022-08-03T14:34:50.514Z,48.555
2022-08-03T14:35:59.091Z,48.535999
2022-08-03T14:37:06.960Z,48.512001
2022-08-03T14:38:16.688Z,48.512001
2022-08-03T14:39:25.488Z,48.580002
2022-08-03T14:40:34.861Z,48.5
2022-08-03T14:41:43.701Z,48.874001
2022-08-03T14:42:52.335Z,48.402
2022-08-03T14:44:02.572Z,48.296001
2022-08-03T14:45:19.922Z,48.203999
2022-08-03T16:35:31.284Z,49.535
2022-08-03T16:36:39.963Z,49.528999
2022-08-03T16:37:50.843Z,49.652
2022-08-03T16:38:58.224Z,49.731998
2022-08-03T16:40:07.860Z,49.762001
2022-08-03T16:41:18.441Z,49.794998
2022-08-03T16:42:27.088Z,49.743999
2022-08-03T16:43:36.710Z,49.692001
2022-08-03T16:44:45.367Z,49.638
2022-08-03T16:45:54.048Z,49.703999
2022-08-03T16:47:02.642Z,49.763
2022-08-03T16:48:11.214Z,49.819
2022-08-03T16:49:53.423Z,49.816002
2022-08-03T16:50:31.529Z,49.75
2022-08-03T16:51:50.189Z,49.730999
2022-08-03T16:52:51.655Z,49.696999
2022-08-03T16:54:05.217Z,49.731998
2022-08-03T16:55:11.757Z,49.754002
2022-08-03T16:56:22.340Z,49.757
2022-08-03T16:57:56.811Z,49.778999
2022-08-03T16:58:44.326Z,49.761002
2022-08-03T16:59:52.110Z,49.761002
2022-08-03T17:01:03.768Z,49.807999
2022-08-03T17:02:13.357Z,49.799999
2022-08-03T17:03:24.169Z,49.818001
2022-08-03T17:04:31.610Z,49.841
2022-08-03T17:05:44.012Z,49.828999
2022-08-03T17:06:51.175Z,49.803001
2022-08-03T17:08:00.809Z,49.777
2022-08-03T17:09:11.435Z,49.771
